createdAt,value
2023-04-30T05:33:00.995Z,10.50
2023-04-30T05:35:27.469Z,10.75
2023-04-30T05:37:54.184Z,14.75
2023-04-30T05:40:21.011Z,14.00
2023-04-30T05:42:49.737Z,13.50
2023-04-30T05:45:17.482Z,11.50
2023-04-30T05:47:44.028Z,11.50
2023-04-30T05:50:10.806Z,13.25
2023-04-30T05:52:37.230Z,11.00
2023-04-30T05:55:03.665Z,12.75
2023-04-30T05:57:30.289Z,13.00
2023-04-30T05:59:57.677Z,11.50
2023-04-30T06:02:24.281Z,11.75
2023-04-30T06:04:51.218Z,11.00
2023-04-30T06:07:17.604Z,10.25
2023-04-30T06:09:44.032Z,4.25
2023-04-30T06:12:10.698Z,9.50
2023-04-30T06:14:37.289Z,11.00
2023-04-30T06:17:03.693Z,9.00
2023-04-30T06:19:30.105Z,6.75
2023-04-30T06:21:56.626Z,8.75
2023-04-30T06:24:23.052Z,11.25
2023-04-30T06:26:49.481Z,10.75
2023-04-30T06:29:16.004Z,10.00
2023-04-30T06:31:42.463Z,8.00
2023-04-30T06:34:08.990Z,8.50
2023-04-30T06:36:35.493Z,8.75
2023-04-30T06:39:01.884Z,8.00
2023-04-30T06:41:28.310Z,7.00
2023-04-30T06:43:54.756Z,8.50
2023-04-30T06:46:21.444Z,6.50
2023-04-30T06:48:47.867Z,7.25
2023-04-30T06:51:14.275Z,6.75
2023-04-30T06:53:40.687Z,4.25
2023-04-30T06:56:07.374Z,7.00
2023-04-30T06:58:33.790Z,2.50
2023-04-30T07:01:01.099Z,5.75
2023-04-30T07:03:28.171Z,9.00
2023-04-30T07:05:54.997Z,18.25
2023-04-30T07:08:22.379Z,5.25
2023-04-30T07:10:48.848Z,5.25
2023-04-30T07:13:16.611Z,6.50
2023-04-30T07:15:43.200Z,9.50
2023-04-30T07:18:10.355Z,7.00
2023-04-30T07:20:36.846Z,6.00
2023-04-30T07:23:03.489Z,8.75
2023-04-30T07:25:29.956Z,6.00
2023-04-30T07:27:56.515Z,8.00
2023-04-30T07:30:24.873Z,10.25
2023-04-30T07:32:51.724Z,6.50
2023-04-30T07:35:18.200Z,13.25
2023-04-30T07:37:44.723Z,9.75
2023-04-30T07:40:22.033Z,12.00
2023-04-30T07:42:55.291Z,6.50
2023-04-30T07:45:21.700Z,7.00
2023-04-30T07:47:48.854Z,5.50
2023-04-30T07:50:15.368Z,7.75
2023-04-30T07:52:42.162Z,6.00
2023-04-30T07:55:08.906Z,7.75
2023-04-30T07:57:35.494Z,6.00
2023-04-30T08:00:02.189Z,6.00
2023-04-30T08:02:28.863Z,7.75
2023-04-30T08:04:55.358Z,6.25
2023-04-30T08:07:22.380Z,7.00
2023-04-30T08:09:48.771Z,10.50
2023-04-30T08:12:16.724Z,7.00
2023-04-30T08:14:43.154Z,8.00
2023-04-30T08:17:09.660Z,7.75
2023-04-30T08:19:36.022Z,6.75
2023-04-30T08:22:02.445Z,5.00
2023-04-30T08:24:28.812Z,5.25
2023-04-30T08:26:55.318Z,7.75
2023-04-30T08:29:21.781Z,5.00
2023-04-30T08:31:48.304Z,5.00
2023-04-30T08:34:14.939Z,10.75
2023-04-30T08:36:41.522Z,9.00
2023-04-30T08:39:07.996Z,6.50
2023-04-30T08:41:36.394Z,5.00
2023-04-30T08:44:04.343Z,4.25
2023-04-30T08:46:33.814Z,4.00
2023-04-30T08:49:00.570Z,5.00
2023-04-30T08:51:27.769Z,4.00
2023-04-30T08:53:55.232Z,4.00
2023-04-30T08:56:23.102Z,4.00
2023-04-30T08:58:51.278Z,4.00
2023-04-30T09:01:17.820Z,4.25
2023-04-30T09:03:44.388Z,3.00
2023-04-30T09:06:15.296Z,3.75
2023-04-30T09:08:47.042Z,4.25
2023-04-30T09:11:23.975Z,4.00
2023-04-30T09:13:52.707Z,3.50
2023-04-30T09:16:19.969Z,3.75
2023-04-30T09:18:47.460Z,5.00
2023-04-30T09:21:14.150Z,5.25
2023-04-30T09:23:57.037Z,5.00
2023-04-30T09:26:27.561Z,4.50
2023-04-30T09:28:57.909Z,3.00
2023-04-30T09:31:27.570Z,5.00
2023-04-30T09:33:54.431Z,3.25
2023-04-30T09:36:20.969Z,4.00
2023-04-30T09:38:47.471Z,4.00
2023-04-30T09:41:27.734Z,2.25
2023-04-30T09:43:57.631Z,4.00
2023-04-30T09:46:44.560Z,3.00
2023-04-30T09:49:11.250Z,2.50
2023-04-30T09:51:53.299Z,6.00
2023-04-30T09:54:21.680Z,2.50
2023-04-30T09:56:48.439Z,3.00
2023-04-30T09:59:16.396Z,5.00
2023-04-30T10:01:42.968Z,3.25
2023-04-30T10:04:09.591Z,6.00
2023-04-30T10:06:36.577Z,2.75
2023-04-30T10:09:05.300Z,4.50
2023-04-30T10:11:33.076Z,2.00
2023-04-30T10:14:03.824Z,2.00
2023-04-30T10:16:34.801Z,3.00
2023-04-30T10:19:05.996Z,4.00
2023-04-30T10:21:32.703Z,2.00
2023-04-30T10:23:59.789Z,3.50
2023-04-30T10:26:26.988Z,2.00
2023-04-30T10:28:54.341Z,2.75
2023-04-30T10:31:21.564Z,2.00
2023-04-30T10:34:08.411Z,2.25
2023-04-30T10:36:41.332Z,2.75
2023-04-30T10:39:08.460Z,3.00
2023-04-30T10:41:34.916Z,1.25
2023-04-30T10:44:02.316Z,3.00
2023-04-30T10:46:29.064Z,2.00
2023-04-30T10:48:55.836Z,2.00
2023-04-30T10:51:23.719Z,3.25
2023-04-30T10:53:54.223Z,2.00
2023-04-30T10:56:33.520Z,4.00
2023-04-30T10:59:02.563Z,2.00
2023-04-30T11:01:29.584Z,2.00
2023-04-30T11:04:09.616Z,2.00
2023-04-30T11:06:55.693Z,2.00
2023-04-30T11:09:39.196Z,3.00
2023-04-30T11:12:10.915Z,1.75
2023-04-30T11:14:41.487Z,2.25
2023-04-30T11:17:09.124Z,2.25
2023-04-30T11:19:35.531Z,2.75
2023-04-30T11:22:04.923Z,2.00
2023-04-30T11:24:50.015Z,2.25
2023-04-30T11:27:35.373Z,2.00
2023-04-30T11:30:02.619Z,2.00
2023-04-30T11:32:34.329Z,2.00
2023-04-30T11:35:04.948Z,2.25
2023-04-30T11:37:32.724Z,2.75
2023-04-30T11:40:04.062Z,0.75
2023-04-30T11:42:31.388Z,2.50
2023-04-30T11:45:05.089Z,3.00
2023-04-30T11:47:47.083Z,3.00
2023-04-30T11:50:15.650Z,2.75
2023-04-30T11:52:42.778Z,2.75
2023-04-30T11:55:16.507Z,0.25
2023-04-30T11:57:43.674Z,3.00
2023-04-30T12:00:14.276Z,2.00
2023-04-30T12:02:42.374Z,1.00
2023-04-30T12:05:13.626Z,2.75
2023-04-30T12:07:40.220Z,2.00
2023-04-30T12:10:07.225Z,2.00
2023-04-30T12:12:36.819Z,3.75
2023-04-30T12:15:11.178Z,3.00
2023-04-30T12:17:37.633Z,2.50
2023-04-30T12:20:05.320Z,3.00
2023-04-30T12:22:32.022Z,1.25
2023-04-30T12:24:59.669Z,1.50
2023-04-30T12:27:26.115Z,1.00
2023-04-30T12:29:55.032Z,3.00
2023-04-30T12:32:22.100Z,2.00
2023-04-30T12:34:48.899Z,1.00
2023-04-30T12:37:16.628Z,1.00
2023-04-30T12:39:43.410Z,2.75
2023-04-30T12:42:10.404Z,1.50
2023-04-30T12:44:44.353Z,1.75
2023-04-30T12:47:10.837Z,2.00
2023-04-30T12:49:37.292Z,1.25
2023-04-30T12:52:08.585Z,2.00
2023-04-30T12:54:35.989Z,4.00
2023-04-30T12:57:03.652Z,3.00
2023-04-30T12:59:30.850Z,1.00
2023-04-30T13:02:06.419Z,3.00
2023-04-30T13:04:33.002Z,2.00
2023-04-30T13:07:01.657Z,3.00
2023-04-30T13:09:28.136Z,3.50
2023-04-30T13:11:54.673Z,3.00
2023-04-30T13:14:21.136Z,1.00
2023-04-30T13:16:48.075Z,1.00
2023-04-30T13:19:14.473Z,1.00
2023-04-30T13:21:41.236Z,0.25
2023-04-30T13:24:07.615Z,1.25
2023-04-30T13:26:34.123Z,2.00
2023-04-30T13:29:00.594Z,3.00
2023-04-30T13:31:27.302Z,1.25
2023-04-30T13:33:54.968Z,2.00
2023-04-30T13:36:21.542Z,2.50
2023-04-30T13:38:47.916Z,2.25
2023-04-30T13:41:14.540Z,3.00
2023-04-30T13:43:44.834Z,1.00
2023-04-30T13:46:11.390Z,2.25
2023-04-30T13:48:38.350Z,2.25
2023-04-30T13:51:04.887Z,0.50
2023-04-30T13:53:31.494Z,0.00
2023-04-30T13:55:59.383Z,2.00
2023-04-30T13:58:26.354Z,1.50
2023-04-30T14:00:52.830Z,2.50
2023-04-30T14:03:19.315Z,2.00
2023-04-30T14:05:46.825Z,2.00
2023-04-30T14:08:13.233Z,1.00
2023-04-30T14:10:39.609Z,2.00
2023-04-30T14:13:06.427Z,2.00
2023-04-30T14:15:32.986Z,2.50
2023-04-30T14:18:00.601Z,2.50
2023-04-30T14:20:27.674Z,2.25
2023-04-30T14:22:54.104Z,2.50
2023-04-30T14:25:20.651Z,0.00
2023-04-30T14:27:47.621Z,1.00
2023-04-30T14:30:14.186Z,4.00
2023-04-30T14:32:40.767Z,2.00
2023-04-30T14:35:07.622Z,2.25
2023-04-30T14:37:34.182Z,3.25
2023-04-30T14:40:02.133Z,2.50
2023-04-30T14:42:28.747Z,2.25
2023-04-30T14:44:55.148Z,3.00
2023-04-30T14:47:22.747Z,2.75
2023-04-30T14:49:52.121Z,3.75
2023-04-30T14:52:19.901Z,3.25
2023-04-30T14:54:46.345Z,3.00
2023-04-30T14:57:12.872Z,3.25
2023-04-30T14:59:40.363Z,3.50
2023-04-30T15:02:07.273Z,3.00
2023-04-30T15:04:33.860Z,2.00
2023-04-30T15:07:01.042Z,0.00
2023-04-30T15:09:27.903Z,2.00
2023-04-30T15:11:54.471Z,4.00
2023-04-30T15:14:20.868Z,2.00
2023-04-30T15:16:47.297Z,1.00
2023-04-30T15:19:13.746Z,1.50
2023-04-30T15:21:40.508Z,1.00
2023-04-30T15:24:07.344Z,0.75
2023-04-30T15:26:33.725Z,1.00
2023-04-30T15:29:00.442Z,1.50
2023-04-30T15:31:27.465Z,3.00
2023-04-30T15:33:53.890Z,3.00
2023-04-30T15:36:22.445Z,2.00
2023-04-30T15:38:48.909Z,1.00
2023-04-30T15:41:15.295Z,2.25
2023-04-30T15:43:41.670Z,2.00
2023-04-30T15:46:08.299Z,1.25
2023-04-30T15:48:34.954Z,1.50
2023-04-30T15:51:01.582Z,1.75
2023-04-30T15:53:28.018Z,1.50
2023-04-30T15:55:54.862Z,5.25
2023-04-30T15:58:21.355Z,2.00
2023-04-30T16:00:47.949Z,3.00
2023-04-30T16:03:14.542Z,1.50
2023-04-30T16:05:41.836Z,4.00
2023-04-30T16:08:09.060Z,0.50
2023-04-30T16:10:36.108Z,2.00
2023-04-30T16:13:02.845Z,3.25
2023-04-30T16:15:30.386Z,2.25
2023-04-30T16:17:57.269Z,3.00
2023-04-30T16:20:24.088Z,0.25
2023-04-30T16:22:50.737Z,2.25
2023-04-30T16:25:17.402Z,3.00
2023-04-30T16:27:44.209Z,1.75
2023-04-30T16:30:10.824Z,9.50
2023-04-30T16:32:37.448Z,4.50
2023-04-30T16:35:04.204Z,4.00
2023-04-30T16:37:31.189Z,4.50
2023-04-30T16:39:58.084Z,0.75
2023-04-30T16:42:24.828Z,8.50
2023-04-30T16:44:51.366Z,5.00
2023-04-30T16:47:18.838Z,7.50
2023-04-30T16:49:45.312Z,11.75
2023-04-30T16:52:12.710Z,3.00
2023-04-30T16:54:39.110Z,5.00
2023-04-30T16:57:05.698Z,7.25
2023-04-30T16:59:32.354Z,6.75
2023-04-30T17:02:00.652Z,16.00
2023-04-30T17:04:27.308Z,4.00
2023-04-30T17:06:53.782Z,22.33
2023-04-30T17:09:20.164Z,18.75
2023-04-30T17:11:47.113Z,18.00
2023-04-30T17:14:13.524Z,6.00
2023-04-30T17:16:40.028Z,4.25
2023-04-30T17:19:07.773Z,4.00
2023-04-30T17:21:34.350Z,12.50
2023-04-30T17:24:01.718Z,9.00
2023-04-30T17:26:28.157Z,8.00
2023-04-30T17:28:54.572Z,10.00
2023-04-30T17:31:21.021Z,14.00
2023-04-30T17:33:47.543Z,8.75
2023-04-30T17:36:14.065Z,11.00
2023-04-30T17:38:40.537Z,7.25
2023-04-30T17:41:07.134Z,24.25
2023-04-30T17:43:33.550Z,19.00
2023-04-30T17:46:00.058Z,20.00
2023-04-30T17:48:26.855Z,21.00
2023-04-30T17:50:53.306Z,16.50
2023-04-30T17:53:19.692Z,30.50
2023-04-30T17:55:46.202Z,30.50
2023-04-30T17:58:12.687Z,27.00
2023-04-30T18:00:40.449Z,27.50
2023-04-30T18:03:07.341Z,38.00
2023-04-30T18:05:35.573Z,36.00
2023-04-30T18:08:02.387Z,32.25
2023-04-30T18:10:28.822Z,37.25
2023-04-30T18:12:57.573Z,44.00
2023-04-30T18:15:24.282Z,78.00
2023-04-30T18:17:50.713Z,61.25
2023-04-30T18:20:17.237Z,39.50
2023-04-30T18:22:43.822Z,46.25
2023-04-30T18:25:11.349Z,38.75
2023-04-30T18:27:37.786Z,29.75
2023-04-30T18:30:04.740Z,37.00
2023-04-30T18:32:31.436Z,29.50
2023-04-30T18:34:58.055Z,13.25
2023-04-30T18:37:24.886Z,11.00
2023-04-30T18:39:51.790Z,11.75
2023-04-30T18:42:18.240Z,13.00
2023-04-30T18:44:44.695Z,10.00
2023-04-30T18:47:11.859Z,12.00
2023-04-30T18:49:41.422Z,11.25
2023-04-30T18:52:45.146Z,12.25
2023-04-30T21:19:45.246Z,20.50
2023-04-30T21:22:38.620Z,25.50
2023-04-30T21:28:13.126Z,27.50
2023-04-30T21:39:10.011Z,29.25
2023-04-30T21:44:33.404Z,27.50
2023-04-30T21:47:04.151Z,24.25
2023-04-30T21:49:48.205Z,27.25
2023-04-30T21:52:23.569Z,25.50
2023-04-30T21:55:00.904Z,33.25
2023-04-30T22:00:21.833Z,35.50
2023-04-30T22:02:52.292Z,35.00
2023-04-30T22:05:38.500Z,36.50
2023-04-30T22:08:11.399Z,35.50
2023-04-30T22:10:44.683Z,36.50
2023-04-30T22:16:18.732Z,30.00
2023-04-30T22:18:49.235Z,32.25
2023-04-30T22:24:07.630Z,32.75
2023-04-30T22:26:36.450Z,28.00
2023-04-30T22:29:08.161Z,33.50
2023-04-30T22:31:36.075Z,33.00
2023-04-30T22:34:04.683Z,32.25
2023-04-30T22:36:35.078Z,30.75
2023-04-30T22:39:11.400Z,38.50
2023-04-30T22:41:48.141Z,38.00
2023-04-30T22:44:18.748Z,38.00
2023-04-30T22:46:47.198Z,36.25
2023-04-30T22:49:30.082Z,38.00
2023-04-30T22:52:04.291Z,40.75
2023-04-30T22:54:35.357Z,40.75
2023-04-30T22:57:09.339Z,39.00
2023-04-30T22:59:38.775Z,42.50
2023-04-30T23:02:07.021Z,37.75
2023-04-30T23:04:36.717Z,34.25
2023-04-30T23:07:04.804Z,34.50
2023-04-30T23:09:31.991Z,38.25
2023-04-30T23:11:59.179Z,37.00
2023-04-30T23:14:27.386Z,37.75
2023-04-30T23:16:56.613Z,30.00
2023-04-30T23:19:24.618Z,30.50
2023-04-30T23:21:53.398Z,30.00
2023-04-30T23:24:21.032Z,30.75
2023-04-30T23:26:52.332Z,31.25
2023-04-30T23:29:24.305Z,31.75
2023-04-30T23:31:54.715Z,31.50
2023-04-30T23:34:21.546Z,33.50
2023-04-30T23:36:49.666Z,33.50
2023-04-30T23:39:17.222Z,37.00
2023-04-30T23:41:44.805Z,30.75
2023-04-30T23:44:13.466Z,36.00
2023-04-30T23:46:42.605Z,41.50
2023-04-30T23:49:19.096Z,42.00
2023-04-30T23:51:46.836Z,43.50
2023-04-30T23:54:13.760Z,40.00
2023-04-30T23:56:40.261Z,40.75
2023-04-30T23:59:16.307Z,43.00
